createdAt,value
2022-07-25T00:00:47.901Z,55.80
2022-07-25T00:01:48.008Z,55.80
2022-07-25T00:02:47.880Z,56.20
2022-07-25T00:03:47.869Z,55.80
2022-07-25T00:04:47.951Z,55.80
2022-07-25T00:05:47.838Z,55.50
2022-07-25T00:06:47.832Z,56.20
2022-07-25T00:07:47.809Z,55.80
2022-07-25T00:08:47.839Z,55.80
2022-07-25T00:09:47.810Z,55.80
2022-07-25T00:10:47.801Z,55.70
2022-07-25T00:11:47.793Z,55.70
2022-07-25T00:12:47.788Z,56.00
2022-07-25T00:13:47.761Z,56.23
2022-07-25T00:14:47.728Z,56.00
2022-07-25T00:15:47.807Z,55.93
2022-07-25T00:16:47.697Z,55.82
2022-07-25T00:17:47.681Z,56.43
2022-07-25T00:18:47.681Z,56.20
2022-07-25T00:19:47.675Z,55.93
2022-07-25T00:20:47.653Z,55.82
2022-07-25T00:21:47.651Z,55.93
2022-07-25T00:22:47.607Z,56.02
2022-07-25T00:23:47.600Z,56.02
2022-07-25T00:24:47.599Z,55.93
2022-07-25T00:25:47.606Z,55.93
2022-07-25T00:26:47.567Z,55.90
2022-07-25T00:27:47.567Z,56.02
2022-07-25T00:28:47.549Z,56.02
2022-07-25T00:29:47.527Z,55.93
2022-07-25T00:30:47.571Z,56.23
2022-07-25T00:31:47.600Z,56.33
2022-07-25T00:32:47.497Z,56.73
2022-07-25T00:33:47.485Z,56.52
2022-07-25T00:34:47.468Z,56.02
2022-07-25T00:35:47.448Z,56.52
2022-07-25T00:36:47.487Z,56.63
2022-07-25T00:37:47.430Z,57.13
2022-07-25T00:38:47.406Z,56.83
2022-07-25T00:39:47.413Z,56.93
2022-07-25T00:40:47.378Z,56.63
2022-07-25T00:41:48.377Z,57.33
2022-07-25T00:42:47.365Z,56.73
2022-07-25T00:43:47.335Z,57.23
2022-07-25T00:44:47.354Z,56.52
2022-07-25T00:45:47.345Z,56.85
2022-07-25T00:46:47.460Z,56.96
2022-07-25T00:47:47.301Z,56.96
2022-07-25T00:48:47.349Z,57.26
2022-07-25T00:49:47.315Z,57.15
2022-07-25T00:50:47.269Z,57.15
2022-07-25T00:51:47.257Z,56.96
2022-07-25T00:52:47.259Z,57.35
2022-07-25T00:53:47.215Z,57.35
2022-07-25T00:54:47.242Z,57.46
2022-07-25T00:55:47.195Z,57.06
2022-07-25T00:56:47.213Z,56.85
2022-07-25T00:57:47.196Z,56.96
2022-07-25T00:58:47.159Z,56.96
2022-07-25T00:59:47.165Z,56.85
2022-07-25T01:00:47.123Z,57.15
2022-07-25T01:01:47.219Z,57.15
2022-07-25T01:02:47.192Z,57.35
2022-07-25T01:03:47.154Z,57.79
2022-07-25T01:04:47.151Z,57.59
2022-07-25T01:05:51.598Z,57.48
2022-07-25T01:06:48.110Z,57.59
2022-07-25T01:07:47.127Z,57.68
2022-07-25T01:08:47.027Z,58.29
2022-07-25T01:09:47.034Z,58.29
2022-07-25T01:10:47.017Z,57.68
2022-07-25T01:11:46.996Z,57.79
2022-07-25T01:12:46.985Z,57.68
2022-07-25T01:13:46.977Z,58.39
2022-07-25T01:14:46.950Z,58.39
2022-07-25T01:15:47.010Z,57.89
2022-07-25T01:16:46.930Z,57.79
2022-07-25T01:17:46.967Z,57.89
2022-07-25T01:18:46.896Z,58.09
2022-07-25T01:19:46.915Z,57.68
2022-07-25T01:20:46.886Z,58.09
2022-07-25T01:21:46.891Z,58.18
2022-07-25T01:22:46.872Z,58.22
2022-07-25T01:23:46.844Z,57.91
2022-07-25T01:24:46.827Z,58.11
2022-07-25T01:25:46.834Z,58.51
2022-07-25T01:26:46.831Z,58.62
2022-07-25T01:27:49.974Z,58.72
2022-07-25T01:28:47.779Z,58.31
2022-07-25T01:29:46.850Z,58.01
2022-07-25T01:30:46.868Z,58.42
2022-07-25T01:31:46.759Z,59.01
2022-07-25T01:32:46.734Z,58.81
2022-07-25T01:33:46.713Z,58.92
2022-07-25T01:34:46.720Z,59.01
2022-07-25T01:35:46.703Z,58.31
2022-07-25T01:36:47.661Z,58.72
2022-07-25T01:37:46.665Z,58.51
2022-07-25T01:38:46.713Z,59.12
2022-07-25T01:39:46.654Z,58.31
2022-07-25T01:40:46.652Z,58.31
2022-07-25T01:41:46.622Z,58.42
2022-07-25T01:42:46.682Z,58.42
2022-07-25T01:43:46.595Z,58.81
2022-07-25T01:44:46.617Z,58.72
2022-07-25T01:45:46.624Z,58.31
2022-07-25T01:46:46.667Z,58.62
2022-07-25T01:47:46.538Z,58.11
2022-07-25T01:48:46.552Z,58.72
2022-07-25T01:49:46.537Z,58.22
2022-07-25T01:50:46.547Z,58.92
2022-07-25T01:51:46.507Z,59.12
2022-07-25T01:52:46.503Z,58.62
2022-07-25T01:53:46.496Z,58.92
2022-07-25T01:54:46.453Z,59.12
2022-07-25T01:55:46.463Z,58.11
2022-07-25T01:56:48.187Z,58.72
2022-07-25T01:57:49.538Z,58.62
2022-07-25T01:58:46.433Z,58.62
2022-07-25T01:59:46.425Z,58.44
2022-07-25T02:00:46.370Z,58.54
2022-07-25T02:01:46.427Z,58.54
2022-07-25T02:02:46.351Z,59.05
2022-07-25T02:03:46.343Z,58.84
2022-07-25T02:04:46.409Z,58.64
2022-07-25T02:05:46.359Z,58.75
2022-07-25T02:06:46.311Z,58.94
2022-07-25T02:07:46.372Z,59.34
2022-07-25T02:08:46.269Z,59.05
2022-07-25T02:09:46.268Z,58.94
2022-07-25T02:10:46.253Z,59.34
2022-07-25T02:11:46.242Z,59.05
2022-07-25T02:12:46.230Z,59.25
2022-07-25T02:13:46.222Z,58.24
2022-07-25T02:14:46.228Z,58.54
2022-07-25T02:15:46.235Z,58.94
2022-07-25T02:16:46.258Z,59.14
2022-07-25T02:17:46.177Z,59.14
2022-07-25T02:18:46.202Z,58.94
2022-07-25T02:19:46.161Z,58.64
2022-07-25T02:20:46.128Z,58.64
2022-07-25T02:21:46.132Z,58.54
2022-07-25T02:22:46.100Z,58.84
2022-07-25T02:23:46.102Z,58.94
2022-07-25T02:24:46.080Z,59.25
2022-07-25T02:25:46.088Z,58.75
2022-07-25T02:26:46.271Z,58.75
2022-07-25T02:27:46.045Z,58.64
2022-07-25T02:28:46.059Z,58.54
2022-07-25T02:29:46.740Z,58.94
2022-07-25T02:30:46.055Z,58.64
2022-07-25T02:31:45.983Z,58.75
2022-07-25T02:32:45.972Z,58.94
2022-07-25T02:33:45.964Z,58.84
2022-07-25T02:34:45.949Z,59.05
2022-07-25T02:35:45.940Z,58.84
2022-07-25T02:36:45.917Z,58.94
2022-07-25T02:37:45.901Z,58.94
2022-07-25T02:38:45.889Z,58.84
2022-07-25T02:39:45.879Z,58.54
2022-07-25T02:40:45.862Z,59.14
2022-07-25T02:41:45.850Z,58.75
2022-07-25T02:42:45.841Z,58.84
2022-07-25T02:43:45.829Z,59.45
2022-07-25T02:44:45.974Z,58.84
2022-07-25T02:45:45.915Z,58.54
2022-07-25T02:46:45.852Z,58.84
2022-07-25T02:47:45.891Z,58.75
2022-07-25T02:48:45.990Z,58.77
2022-07-25T02:49:45.763Z,58.87
2022-07-25T02:50:45.742Z,58.67
2022-07-25T02:51:45.830Z,58.87
2022-07-25T02:52:46.105Z,58.97
2022-07-25T02:53:57.022Z,58.44
2022-07-25T02:54:46.748Z,58.54
2022-07-25T02:55:45.718Z,59.34
2022-07-25T02:56:45.719Z,58.75
2022-07-25T02:57:45.729Z,58.54
2022-07-25T02:58:45.726Z,58.67
2022-07-25T02:59:45.660Z,58.87
2022-07-25T03:00:45.630Z,59.08
2022-07-25T03:01:45.690Z,58.87
2022-07-25T03:02:47.568Z,59.27
2022-07-25T03:03:47.591Z,59.47
2022-07-25T03:04:45.574Z,59.67
2022-07-25T03:05:45.547Z,59.38
2022-07-25T03:06:45.527Z,59.78
2022-07-25T03:07:45.528Z,59.38
2022-07-25T03:08:45.493Z,59.47
2022-07-25T03:09:45.511Z,59.47
2022-07-25T03:10:45.487Z,59.47
2022-07-25T03:11:45.508Z,59.98
2022-07-25T03:12:45.444Z,59.38
2022-07-25T03:13:45.457Z,59.58
2022-07-25T03:14:45.436Z,59.50
2022-07-25T03:15:45.406Z,60.11
2022-07-25T03:16:45.443Z,59.50
2022-07-25T03:17:45.437Z,59.60
2022-07-25T03:18:45.376Z,60.21
2022-07-25T03:19:45.376Z,59.60
2022-07-25T03:20:45.339Z,59.70
2022-07-25T03:21:45.347Z,59.91
2022-07-25T03:22:45.317Z,59.91
2022-07-25T03:23:50.425Z,59.50
2022-07-25T03:24:46.288Z,60.51
2022-07-25T03:25:45.277Z,60.11
2022-07-25T03:26:45.280Z,60.11
2022-07-25T03:27:45.287Z,60.21
2022-07-25T03:28:45.235Z,59.70
2022-07-25T03:29:45.229Z,59.70
2022-07-25T03:30:45.264Z,59.60
2022-07-25T03:31:45.326Z,59.80
2022-07-25T03:32:45.213Z,59.60
2022-07-25T03:33:45.175Z,59.41
2022-07-25T03:34:45.163Z,59.50
2022-07-25T03:35:45.143Z,60.41
2022-07-25T03:36:45.141Z,59.80
2022-07-25T03:37:45.126Z,59.70
2022-07-25T03:38:45.103Z,59.91
2022-07-25T03:39:45.124Z,59.50
2022-07-25T03:40:45.074Z,59.91
2022-07-25T03:41:45.077Z,59.70
2022-07-25T03:42:45.063Z,59.91
2022-07-25T03:43:45.041Z,60.11
2022-07-25T03:44:45.046Z,59.80
2022-07-25T03:45:45.064Z,59.60
2022-07-25T03:46:45.009Z,59.70
2022-07-25T03:47:44.993Z,59.70
2022-07-25T03:48:45.033Z,59.41
2022-07-25T03:49:44.962Z,59.50
2022-07-25T03:50:44.958Z,59.50
2022-07-25T03:51:44.943Z,59.70
2022-07-25T03:52:44.928Z,59.41
2022-07-25T03:53:44.918Z,59.30
2022-07-25T03:54:44.916Z,59.50
2022-07-25T03:55:44.884Z,60.00
2022-07-25T03:56:44.871Z,59.80
2022-07-25T03:57:44.874Z,60.51
2022-07-25T03:58:44.852Z,59.70
2022-07-25T03:59:44.833Z,60.21
2022-07-25T04:00:44.860Z,59.70
2022-07-25T04:01:44.813Z,59.80
2022-07-25T04:02:44.925Z,60.00
2022-07-25T04:03:44.784Z,60.11
2022-07-25T04:04:44.779Z,59.91
2022-07-25T04:05:47.550Z,60.41
2022-07-25T04:06:44.763Z,60.31
2022-07-25T04:07:44.735Z,60.31
2022-07-25T04:08:44.723Z,60.21
2022-07-25T04:09:44.707Z,59.80
2022-07-25T04:10:44.694Z,60.00
2022-07-25T04:11:44.692Z,60.41
2022-07-25T04:12:44.673Z,60.11
2022-07-25T04:13:44.667Z,60.31
2022-07-25T04:14:44.653Z,60.21
2022-07-25T04:15:44.620Z,60.31
2022-07-25T04:16:44.662Z,60.31
2022-07-25T04:17:44.646Z,60.21
2022-07-25T04:18:44.609Z,60.61
2022-07-25T04:19:44.647Z,60.38
2022-07-25T04:20:44.566Z,60.38
2022-07-25T04:21:44.566Z,60.11
2022-07-25T04:22:47.022Z,60.18
2022-07-25T04:23:44.548Z,59.70
2022-07-25T04:24:44.510Z,59.67
2022-07-25T04:25:44.491Z,59.27
2022-07-25T04:26:44.501Z,59.47
2022-07-25T04:27:44.473Z,59.08
2022-07-25T04:28:44.460Z,58.87
2022-07-25T04:29:44.450Z,58.64
2022-07-25T04:30:44.439Z,58.24
2022-07-25T04:31:44.486Z,58.14
2022-07-25T04:32:44.414Z,58.34
2022-07-25T04:33:44.401Z,58.14
2022-07-25T04:34:44.390Z,57.74
2022-07-25T04:35:44.379Z,57.71
2022-07-25T04:36:44.369Z,57.81
2022-07-25T04:37:44.343Z,57.91
2022-07-25T04:38:44.346Z,57.71
2022-07-25T04:39:44.320Z,57.61
2022-07-25T04:40:44.330Z,57.71
2022-07-25T04:41:44.307Z,57.91
2022-07-25T04:42:44.288Z,57.61
2022-07-25T04:43:48.507Z,57.51
2022-07-25T04:44:44.247Z,57.51
2022-07-25T04:45:44.262Z,57.71
2022-07-25T04:46:44.242Z,57.39
2022-07-25T04:47:44.217Z,57.39
2022-07-25T04:48:46.374Z,57.18
2022-07-25T04:49:44.201Z,57.18
2022-07-25T04:50:44.178Z,57.08
2022-07-25T04:51:44.173Z,56.98
2022-07-25T04:52:51.198Z,56.98
2022-07-25T04:53:44.920Z,57.15
2022-07-25T04:54:44.387Z,56.85
2022-07-25T04:55:44.129Z,56.96
2022-07-25T04:56:44.117Z,56.85
2022-07-25T04:57:44.111Z,56.56
2022-07-25T04:58:44.096Z,56.26
2022-07-25T04:59:44.081Z,56.26
2022-07-25T05:00:44.084Z,56.43
2022-07-25T05:01:44.077Z,55.95
2022-07-25T05:02:44.071Z,56.15
2022-07-25T05:03:50.500Z,56.52
2022-07-25T05:04:45.668Z,56.02
2022-07-25T05:05:44.009Z,55.93
2022-07-25T05:06:43.999Z,56.02
2022-07-25T05:07:43.955Z,55.93
2022-07-25T05:08:43.958Z,55.93
2022-07-25T05:09:43.947Z,55.80
2022-07-25T05:10:43.929Z,55.60
2022-07-25T05:11:48.654Z,55.70
2022-07-25T05:12:44.893Z,55.70
2022-07-25T05:13:43.887Z,55.50
2022-07-25T05:14:43.908Z,55.60
2022-07-25T05:15:43.857Z,55.47
2022-07-25T05:16:43.972Z,55.47
2022-07-25T05:17:43.830Z,55.37
2022-07-25T05:18:43.822Z,55.27
2022-07-25T05:19:43.813Z,55.27
2022-07-25T05:20:43.796Z,54.97
2022-07-25T05:21:43.788Z,55.07
2022-07-25T05:22:43.766Z,54.97
2022-07-25T05:23:43.756Z,54.57
2022-07-25T05:24:43.736Z,54.35
2022-07-25T05:25:43.714Z,54.35
2022-07-25T05:26:43.718Z,54.05
2022-07-25T05:27:43.721Z,54.14
2022-07-25T05:28:43.686Z,54.14
2022-07-25T05:29:43.667Z,54.05
2022-07-25T05:30:43.674Z,53.85
2022-07-25T05:31:43.734Z,54.12
2022-07-25T05:32:43.646Z,53.92
2022-07-25T05:33:43.639Z,54.32
2022-07-25T05:34:43.620Z,53.52
2022-07-25T05:35:43.599Z,53.72
2022-07-25T05:36:47.200Z,53.62
2022-07-25T05:37:43.586Z,53.79
2022-07-25T05:38:43.559Z,53.89
2022-07-25T05:39:43.546Z,53.59
2022-07-25T05:40:43.538Z,53.49
2022-07-25T05:41:43.539Z,53.99
2022-07-25T05:42:43.514Z,53.19
2022-07-25T05:43:43.523Z,53.09
2022-07-25T05:44:43.486Z,52.97
2022-07-25T05:45:43.464Z,53.47
2022-07-25T05:46:43.529Z,53.37
2022-07-25T05:47:43.454Z,53.27
2022-07-25T05:48:43.489Z,53.47
2022-07-25T05:49:43.433Z,53.07
2022-07-25T05:50:43.404Z,53.67
2022-07-25T05:51:43.386Z,53.07
2022-07-25T05:52:43.386Z,53.04
2022-07-25T05:53:43.361Z,52.94
2022-07-25T05:54:43.355Z,52.84
2022-07-25T05:55:43.345Z,53.24
2022-07-25T05:56:43.336Z,53.04
2022-07-25T05:57:43.333Z,52.94
2022-07-25T05:58:43.309Z,52.94
2022-07-25T05:59:43.288Z,52.94
2022-07-25T06:00:43.264Z,52.84
2022-07-25T06:01:43.553Z,53.24
2022-07-25T06:02:43.393Z,52.94
2022-07-25T06:03:43.235Z,52.94
2022-07-25T06:04:43.228Z,53.02
2022-07-25T06:05:43.202Z,52.82
2022-07-25T06:06:43.203Z,52.92
2022-07-25T06:07:43.194Z,52.92
2022-07-25T06:08:43.175Z,52.82
2022-07-25T06:09:43.163Z,52.62
2022-07-25T06:10:43.141Z,52.72
2022-07-25T06:11:51.037Z,52.62
2022-07-25T06:12:44.135Z,53.09
2022-07-25T06:13:43.101Z,52.99
2022-07-25T06:14:43.101Z,53.09
2022-07-25T06:15:43.086Z,52.89
2022-07-25T06:16:43.179Z,53.19
2022-07-25T06:17:43.086Z,52.79
2022-07-25T06:18:43.042Z,53.29
2022-07-25T06:19:43.043Z,53.09
2022-07-25T06:20:43.015Z,53.19
2022-07-25T06:21:43.013Z,53.39
2022-07-25T06:22:43.009Z,52.76
2022-07-25T06:23:42.986Z,52.87
2022-07-25T06:24:42.976Z,52.97
2022-07-25T06:25:42.965Z,52.97
2022-07-25T06:26:43.942Z,52.87
2022-07-25T06:27:42.960Z,52.97
2022-07-25T06:28:42.924Z,53.06
2022-07-25T06:29:42.892Z,53.17
2022-07-25T06:30:42.894Z,52.87
2022-07-25T06:31:46.408Z,52.84
2022-07-25T06:32:42.863Z,52.55
2022-07-25T06:33:42.857Z,52.74
2022-07-25T06:34:42.854Z,53.54
2022-07-25T06:35:42.833Z,52.64
2022-07-25T06:36:42.822Z,52.84
2022-07-25T06:37:42.802Z,52.84
2022-07-25T06:38:42.843Z,52.62
2022-07-25T06:39:45.833Z,53.11
2022-07-25T06:40:42.784Z,52.81
2022-07-25T06:41:42.766Z,52.32
2022-07-25T06:42:42.746Z,52.42
2022-07-25T06:43:42.845Z,52.49
2022-07-25T06:44:42.733Z,52.39
2022-07-25T06:45:42.697Z,52.39
2022-07-25T06:46:42.739Z,52.79
2022-07-25T06:47:42.693Z,52.29
2022-07-25T06:48:42.721Z,52.39
2022-07-25T06:49:42.632Z,51.97
2022-07-25T06:50:42.634Z,51.87
2022-07-25T06:51:42.649Z,52.07
2022-07-25T06:52:42.606Z,51.67
2022-07-25T06:53:42.590Z,51.77
2022-07-25T06:54:42.585Z,51.75
2022-07-25T06:55:42.566Z,51.35
2022-07-25T06:56:42.576Z,51.35
2022-07-25T06:57:42.552Z,51.35
2022-07-25T06:58:42.539Z,51.75
2022-07-25T06:59:42.525Z,51.75
2022-07-25T07:00:42.561Z,51.42
2022-07-25T07:01:42.534Z,51.52
2022-07-25T07:02:42.494Z,51.82
2022-07-25T07:03:42.533Z,51.52
2022-07-25T07:04:42.459Z,51.92
2022-07-25T07:05:42.469Z,51.70
2022-07-25T07:06:42.460Z,51.50
2022-07-25T07:07:47.442Z,51.60
2022-07-25T07:08:43.414Z,51.60
2022-07-25T07:09:42.401Z,51.20
2022-07-25T07:10:42.383Z,51.10
2022-07-25T07:11:42.378Z,51.07
2022-07-25T07:12:42.373Z,51.37
2022-07-25T07:13:42.352Z,51.07
2022-07-25T07:14:42.332Z,50.88
2022-07-25T07:15:42.390Z,50.75
2022-07-25T07:16:42.401Z,50.95
2022-07-25T07:17:42.334Z,51.15
2022-07-25T07:18:45.814Z,51.25
2022-07-25T07:19:43.282Z,51.45
2022-07-25T07:20:42.264Z,51.45
2022-07-25T07:21:42.305Z,50.93
2022-07-25T07:22:42.252Z,50.63
2022-07-25T07:23:42.262Z,50.63
2022-07-25T07:24:43.985Z,50.43
2022-07-25T07:25:42.190Z,50.73
2022-07-25T07:26:42.302Z,50.73
2022-07-25T07:27:42.166Z,50.01
2022-07-25T07:28:42.169Z,50.01
2022-07-25T07:29:42.207Z,50.40
2022-07-25T07:31:43.159Z,49.61
2022-07-25T07:32:42.102Z,49.71
2022-07-25T07:33:42.127Z,49.71
2022-07-25T07:34:42.147Z,50.18
2022-07-25T07:35:42.067Z,49.99
2022-07-25T07:36:42.081Z,50.18
2022-07-25T07:37:43.824Z,49.59
2022-07-25T07:38:42.040Z,49.59
2022-07-25T07:39:42.018Z,49.69
2022-07-25T07:40:42.018Z,49.59
2022-07-25T07:41:41.982Z,50.18
2022-07-25T07:42:42.014Z,49.49
2022-07-25T07:43:41.974Z,49.37
2022-07-25T07:44:41.974Z,49.76
2022-07-25T07:45:41.933Z,50.16
2022-07-25T07:46:42.021Z,49.66
2022-07-25T07:47:41.934Z,49.76
2022-07-25T07:48:41.915Z,49.57
2022-07-25T07:49:41.883Z,50.16
2022-07-25T07:50:41.884Z,50.26
2022-07-25T07:51:41.935Z,50.16
2022-07-25T07:52:41.848Z,49.86
2022-07-25T07:53:41.970Z,49.74
2022-07-25T07:54:41.815Z,49.44
2022-07-25T07:55:41.802Z,49.24
2022-07-25T07:56:41.814Z,49.64
2022-07-25T07:57:41.792Z,49.02
2022-07-25T07:58:41.802Z,49.02
2022-07-25T07:59:41.750Z,49.12
2022-07-25T08:00:41.740Z,49.02
2022-07-25T08:01:41.799Z,48.92
2022-07-25T08:02:41.759Z,48.82
2022-07-25T08:03:41.719Z,48.92
2022-07-25T08:04:41.709Z,49.32
2022-07-25T08:05:41.683Z,49.40
2022-07-25T08:06:41.894Z,48.80
2022-07-25T08:07:41.687Z,48.80
2022-07-25T08:08:41.639Z,49.00
2022-07-25T08:09:41.631Z,49.10
2022-07-25T08:10:41.622Z,49.29
2022-07-25T08:11:41.671Z,49.00
2022-07-25T08:12:41.620Z,48.80
2022-07-25T08:13:41.584Z,48.97
2022-07-25T08:14:41.576Z,49.07
2022-07-25T08:15:41.642Z,49.07
2022-07-25T08:16:41.707Z,49.07
2022-07-25T08:17:41.552Z,49.07
2022-07-25T08:18:41.534Z,49.17
2022-07-25T08:19:41.501Z,48.68
2022-07-25T08:20:41.533Z,48.16
2022-07-25T08:21:41.470Z,48.06
2022-07-25T08:22:41.485Z,47.96
2022-07-25T08:23:41.456Z,48.26
2022-07-25T08:24:41.433Z,48.06
2022-07-25T08:25:41.446Z,48.46
2022-07-25T08:26:41.435Z,48.55
2022-07-25T08:27:41.447Z,48.65
2022-07-25T08:28:41.389Z,48.33
2022-07-25T08:29:41.382Z,48.03
2022-07-25T08:30:41.372Z,48.24
2022-07-25T08:31:41.422Z,48.14
2022-07-25T08:32:41.348Z,47.81
2022-07-25T08:33:41.345Z,48.11
2022-07-25T08:34:41.313Z,48.41
2022-07-25T08:35:41.318Z,48.11
2022-07-25T08:36:41.279Z,47.81
2022-07-25T08:37:41.325Z,47.91
2022-07-25T08:38:41.263Z,48.41
2022-07-25T08:39:41.244Z,48.80
2022-07-25T08:40:41.240Z,48.41
2022-07-25T08:41:41.233Z,48.02
2022-07-25T08:42:41.217Z,48.11
2022-07-25T08:43:41.203Z,48.28
2022-07-25T08:44:41.183Z,48.19
2022-07-25T08:45:41.177Z,47.79
2022-07-25T08:46:41.248Z,47.67
2022-07-25T08:47:41.170Z,47.28
2022-07-25T08:48:41.185Z,47.67
2022-07-25T08:49:41.120Z,47.47
2022-07-25T08:50:41.172Z,47.67
2022-07-25T08:51:41.254Z,47.47
2022-07-25T08:52:41.172Z,47.97
2022-07-25T08:53:41.073Z,47.57
2022-07-25T08:54:41.059Z,47.97
2022-07-25T08:55:41.050Z,47.28
2022-07-25T08:56:41.060Z,47.28
2022-07-25T08:57:41.021Z,47.25
2022-07-25T08:58:41.021Z,47.06
2022-07-25T08:59:40.995Z,48.04
2022-07-25T09:00:40.982Z,47.75
2022-07-25T09:01:41.036Z,48.34
2022-07-25T09:02:41.023Z,48.24
2022-07-25T09:03:40.948Z,47.35
2022-07-25T09:04:40.930Z,46.96
2022-07-25T09:05:40.922Z,46.86
2022-07-25T09:06:40.901Z,47.03
2022-07-25T09:07:40.903Z,46.64
2022-07-25T09:08:40.880Z,46.74
2022-07-25T09:09:40.883Z,46.64
2022-07-25T09:10:40.862Z,46.62
2022-07-25T09:11:40.861Z,46.12
2022-07-25T09:12:40.842Z,46.12
2022-07-25T09:13:41.050Z,46.22
2022-07-25T09:14:40.842Z,46.42
2022-07-25T09:15:40.891Z,46.50
2022-07-25T09:16:40.868Z,46.20
2022-07-25T09:17:40.772Z,45.90
2022-07-25T09:18:40.784Z,46.00
2022-07-25T09:19:40.763Z,45.90
2022-07-25T09:20:40.722Z,45.88
2022-07-25T09:21:40.753Z,45.88
2022-07-25T09:22:40.710Z,45.98
2022-07-25T09:23:40.743Z,45.59
2022-07-25T09:24:40.683Z,46.77
2022-07-25T09:25:40.683Z,45.98
2022-07-25T09:26:40.665Z,46.28
2022-07-25T09:27:40.653Z,46.35
2022-07-25T09:28:40.648Z,46.45
2022-07-25T09:29:40.661Z,46.15
2022-07-25T09:30:40.632Z,46.55
2022-07-25T09:31:40.664Z,45.67
2022-07-25T09:32:40.559Z,45.84
2022-07-25T09:33:40.573Z,45.25
2022-07-25T09:34:40.575Z,45.94
2022-07-25T09:35:40.543Z,45.54
2022-07-25T09:36:40.544Z,45.84
2022-07-25T09:37:40.513Z,45.94
2022-07-25T09:38:40.621Z,45.15
2022-07-25T09:39:45.949Z,45.05
2022-07-25T09:40:41.481Z,45.03
2022-07-25T09:41:40.469Z,45.03
2022-07-25T09:42:40.453Z,45.01
2022-07-25T09:43:40.490Z,44.52
2022-07-25T09:44:40.471Z,44.62
2022-07-25T09:45:40.424Z,44.12
2022-07-25T09:46:40.423Z,44.71
2022-07-25T09:47:40.396Z,44.93
2022-07-25T09:48:40.483Z,44.64
2022-07-25T09:49:40.372Z,44.42
2022-07-25T09:50:40.364Z,44.42
2022-07-25T09:51:40.341Z,44.52
2022-07-25T09:52:40.334Z,44.52
2022-07-25T09:53:40.341Z,44.81
2022-07-25T09:54:40.304Z,44.62
2022-07-25T09:55:40.292Z,44.32
2022-07-25T09:56:40.283Z,44.12
2022-07-25T09:57:40.266Z,44.02
2022-07-25T09:58:40.265Z,44.12
2022-07-25T09:59:40.257Z,44.69
2022-07-25T10:00:40.225Z,43.90
2022-07-25T10:01:40.282Z,43.32
2022-07-25T10:02:40.309Z,43.32
2022-07-25T10:03:40.224Z,43.12
2022-07-25T10:04:40.176Z,43.10
2022-07-25T10:05:40.182Z,43.59
2022-07-25T10:06:40.152Z,43.51
2022-07-25T10:07:40.147Z,43.59
2022-07-25T10:08:40.154Z,43.29
2022-07-25T10:09:40.117Z,43.39
2022-07-25T10:10:40.109Z,43.29
2022-07-25T10:11:40.091Z,43.57
2022-07-25T10:12:40.094Z,43.27
2022-07-25T10:13:40.086Z,43.27
2022-07-25T10:14:40.055Z,42.10
2022-07-25T10:15:40.048Z,42.49
2022-07-25T10:16:40.120Z,42.39
2022-07-25T10:17:40.033Z,42.68
2022-07-25T10:18:40.499Z,42.39
2022-07-25T10:19:39.995Z,41.80
2022-07-25T10:20:39.973Z,41.49
2022-07-25T10:21:39.963Z,41.09
2022-07-25T10:22:55.656Z,42.08
2022-07-25T10:23:40.965Z,40.90
2022-07-25T10:24:39.925Z,40.61
2022-07-25T10:25:39.957Z,40.80
2022-07-25T10:26:39.942Z,40.80
2022-07-25T10:27:39.895Z,41.19
2022-07-25T10:28:39.904Z,41.39
2022-07-25T10:29:39.872Z,41.49
2022-07-25T10:30:39.939Z,41.49
2022-07-25T10:31:39.844Z,41.88
2022-07-25T10:32:39.914Z,42.18
2022-07-25T10:33:39.855Z,41.98
2022-07-25T10:34:39.811Z,41.68
2022-07-25T10:35:39.798Z,40.88
2022-07-25T10:36:39.770Z,40.58
2022-07-25T10:37:39.767Z,40.19
2022-07-25T10:38:39.755Z,40.00
2022-07-25T10:39:39.733Z,39.88
2022-07-25T10:40:39.723Z,39.78
2022-07-25T10:41:39.728Z,40.17
2022-07-25T10:42:39.744Z,39.98
2022-07-25T10:43:39.706Z,40.37
2022-07-25T10:44:39.674Z,40.56
2022-07-25T10:45:39.692Z,40.06
2022-07-25T10:46:39.795Z,39.96
2022-07-25T10:47:39.667Z,40.25
2022-07-25T10:48:39.739Z,41.23
2022-07-25T10:49:50.126Z,40.35
2022-07-25T10:50:55.456Z,40.74
2022-07-25T10:51:42.095Z,40.74
2022-07-25T10:52:39.574Z,40.66
2022-07-25T10:53:46.621Z,40.56
2022-07-25T10:54:42.267Z,40.37
2022-07-25T10:55:39.536Z,40.47
2022-07-25T10:56:39.529Z,40.84
2022-07-25T10:57:55.068Z,40.37
2022-07-25T10:58:40.501Z,40.16
2022-07-25T10:59:39.486Z,40.06
2022-07-25T11:00:39.479Z,39.17
2022-07-25T11:01:39.576Z,39.06
2022-07-25T11:02:39.504Z,38.96
2022-07-25T11:03:39.443Z,38.76
2022-07-25T11:04:39.442Z,38.67
2022-07-25T11:05:39.430Z,38.57
2022-07-25T11:06:39.401Z,38.35
2022-07-25T11:07:39.396Z,38.55
2022-07-25T11:08:39.371Z,38.84
2022-07-25T11:09:39.381Z,37.87
2022-07-25T11:10:39.367Z,37.77
2022-07-25T11:11:39.338Z,37.77
2022-07-25T11:12:39.349Z,37.47
2022-07-25T11:13:39.306Z,37.85
2022-07-25T11:14:39.306Z,37.45
2022-07-25T11:15:39.297Z,37.87
2022-07-25T11:16:39.308Z,37.87
2022-07-25T11:17:39.267Z,38.26
2022-07-25T11:18:39.257Z,38.16
2022-07-25T11:19:39.267Z,38.26
2022-07-25T11:20:39.237Z,38.14
2022-07-25T11:21:39.238Z,38.45
2022-07-25T11:22:39.908Z,38.65
2022-07-25T11:23:39.278Z,38.63
2022-07-25T11:24:39.247Z,38.14
2022-07-25T11:25:39.888Z,38.04
2022-07-25T11:26:39.267Z,38.53
2022-07-25T11:27:39.157Z,37.54
2022-07-25T11:28:39.129Z,37.63
2022-07-25T11:29:39.138Z,37.41
2022-07-25T11:30:39.124Z,35.35
2022-07-25T11:31:39.243Z,35.55
2022-07-25T11:32:39.077Z,35.25
2022-07-25T11:33:39.168Z,34.67
2022-07-25T11:34:39.063Z,34.38
2022-07-25T11:35:39.046Z,34.47
2022-07-25T11:36:39.030Z,34.97
2022-07-25T11:37:39.049Z,35.38
2022-07-25T11:38:39.009Z,35.58
2022-07-25T11:39:38.992Z,35.97
2022-07-25T11:40:38.991Z,36.15
2022-07-25T11:41:38.983Z,36.15
2022-07-25T11:42:38.989Z,36.23
2022-07-25T11:43:38.948Z,35.25
2022-07-25T11:44:40.248Z,35.14
2022-07-25T11:45:38.980Z,34.57
2022-07-25T11:46:38.900Z,34.28
2022-07-25T11:47:38.900Z,34.26
2022-07-25T11:48:39.153Z,33.87
2022-07-25T11:49:38.876Z,33.07
2022-07-25T11:50:38.863Z,33.36
2022-07-25T11:51:38.876Z,33.48
2022-07-25T11:52:38.838Z,33.67
2022-07-25T11:53:38.837Z,34.26
2022-07-25T11:54:38.841Z,34.65
2022-07-25T11:55:38.813Z,34.77
2022-07-25T11:56:43.436Z,34.57
2022-07-25T11:57:39.770Z,34.96
2022-07-25T11:58:38.770Z,35.25
2022-07-25T11:59:38.749Z,34.96
2022-07-25T12:00:38.763Z,35.25
2022-07-25T12:01:38.722Z,35.46
2022-07-25T12:02:38.862Z,36.54
2022-07-25T12:03:38.857Z,35.87
2022-07-25T12:04:38.690Z,35.68
2022-07-25T12:05:38.661Z,36.07
2022-07-25T12:06:38.669Z,36.83
2022-07-25T12:07:38.641Z,36.34
2022-07-25T12:08:38.638Z,35.75
2022-07-25T12:09:38.620Z,35.94
2022-07-25T12:10:38.621Z,36.05
2022-07-25T12:11:38.631Z,35.56
2022-07-25T12:12:38.592Z,35.56
2022-07-25T12:13:38.579Z,35.36
2022-07-25T12:14:38.583Z,35.35
2022-07-25T12:15:38.541Z,35.25
2022-07-25T12:16:38.593Z,35.06
2022-07-25T12:17:38.544Z,34.67
2022-07-25T12:18:38.521Z,34.84
2022-07-25T12:19:38.512Z,34.84
2022-07-25T12:20:38.500Z,34.24
2022-07-25T12:21:38.472Z,34.34
2022-07-25T12:22:38.462Z,34.63
2022-07-25T12:23:38.472Z,34.05
2022-07-25T12:24:38.432Z,33.95
2022-07-25T12:25:38.431Z,34.16
2022-07-25T12:26:38.408Z,33.87
2022-07-25T12:27:38.403Z,34.26
2022-07-25T12:28:38.400Z,34.65
2022-07-25T12:29:38.375Z,33.97
2022-07-25T12:30:38.435Z,33.87
2022-07-25T12:31:38.354Z,34.26
2022-07-25T12:32:38.343Z,34.36
2022-07-25T12:33:38.343Z,34.53
2022-07-25T12:34:38.317Z,34.36
2022-07-25T12:35:38.303Z,34.84
2022-07-25T12:36:38.311Z,34.73
2022-07-25T12:37:38.274Z,34.92
2022-07-25T12:38:38.263Z,34.34
2022-07-25T12:39:38.249Z,34.83
2022-07-25T12:40:38.266Z,34.32
2022-07-25T12:41:38.258Z,33.34
2022-07-25T12:42:38.224Z,33.07
2022-07-25T12:43:38.202Z,33.65
2022-07-25T12:44:38.192Z,33.07
2022-07-25T12:45:38.224Z,32.87
2022-07-25T12:46:38.233Z,33.26
2022-07-25T12:47:38.161Z,32.78
2022-07-25T12:48:38.232Z,33.17
2022-07-25T12:49:38.135Z,33.36
2022-07-25T12:50:38.134Z,33.26
2022-07-25T12:51:38.115Z,33.65
2022-07-25T12:52:38.111Z,33.65
2022-07-25T12:53:42.175Z,34.05